createdAt,value
2023-08-14T00:01:30.973Z,71.43
2023-08-14T00:03:58.328Z,71.22
2023-08-14T00:06:25.658Z,71.09
2023-08-14T00:08:53.267Z,71.47
2023-08-14T00:11:20.626Z,71.69
2023-08-14T00:13:57.260Z,71.68
2023-08-14T00:16:25.891Z,71.88
2023-08-14T00:18:54.530Z,73.24
2023-08-14T00:21:23.654Z,73.38
2023-08-14T00:23:51.308Z,73.10
2023-08-14T00:26:18.831Z,73.14
2023-08-14T00:28:46.107Z,74.29
2023-08-14T00:31:13.551Z,73.49
2023-08-14T00:33:40.934Z,73.17
2023-08-14T00:36:08.245Z,72.62
2023-08-14T00:38:35.750Z,72.56
2023-08-14T00:41:03.135Z,73.20
2023-08-14T00:43:31.004Z,72.78
2023-08-14T00:45:59.129Z,73.28
2023-08-14T00:48:27.025Z,73.12
2023-08-14T00:50:55.348Z,72.70
2023-08-14T00:53:26.225Z,72.62
2023-08-14T00:55:54.537Z,73.99
2023-08-14T00:58:23.955Z,73.46
2023-08-14T01:00:51.847Z,73.45
2023-08-14T01:03:21.441Z,74.22
2023-08-14T01:05:48.905Z,74.63
2023-08-14T01:08:16.328Z,74.53
2023-08-14T01:10:51.208Z,75.31
2023-08-14T01:13:32.224Z,74.72
2023-08-14T01:16:04.506Z,74.17
2023-08-14T01:18:34.784Z,74.10
2023-08-14T01:21:10.168Z,75.16
2023-08-14T01:24:02.264Z,74.98
2023-08-14T01:26:30.350Z,75.07
2023-08-14T01:28:58.213Z,74.29
2023-08-14T01:31:25.828Z,74.05
2023-08-14T01:33:53.181Z,74.12
2023-08-14T01:36:41.764Z,73.50
2023-08-14T01:39:10.938Z,73.75
2023-08-14T01:41:43.819Z,73.80
2023-08-14T01:44:15.429Z,73.51
2023-08-14T01:46:44.541Z,73.63
2023-08-14T01:49:15.505Z,73.88
2023-08-14T01:51:44.228Z,73.55
2023-08-14T01:54:11.588Z,74.00
2023-08-14T01:56:38.972Z,73.75
2023-08-14T01:59:06.327Z,74.03
2023-08-14T02:01:33.674Z,73.90
2023-08-14T02:04:01.033Z,74.45
2023-08-14T02:06:29.224Z,74.54
2023-08-14T02:08:56.494Z,74.19
2023-08-14T02:11:23.850Z,74.45
2023-08-14T02:13:51.218Z,74.65
2023-08-14T02:16:18.677Z,74.16
2023-08-14T02:18:46.118Z,74.06
2023-08-14T02:21:13.431Z,74.80
2023-08-14T02:23:40.791Z,76.29
2023-08-14T02:26:09.437Z,76.50
2023-08-14T02:28:36.783Z,75.49
2023-08-14T02:31:05.694Z,75.19
2023-08-14T02:33:33.136Z,75.10
2023-08-14T02:36:00.544Z,74.88
2023-08-14T02:38:27.998Z,74.77
2023-08-14T02:40:55.277Z,74.30
2023-08-14T02:43:22.643Z,74.60
2023-08-14T02:45:50.017Z,74.42
2023-08-14T02:48:17.372Z,75.65
2023-08-14T02:50:44.708Z,76.42
2023-08-14T02:53:12.017Z,75.60
2023-08-14T02:55:39.428Z,75.17
2023-08-14T02:58:06.756Z,75.00
2023-08-14T03:00:34.132Z,74.26
2023-08-14T03:03:01.547Z,74.79
2023-08-14T03:05:29.236Z,76.29
2023-08-14T03:07:56.509Z,76.15
2023-08-14T03:10:24.151Z,75.37
2023-08-14T03:12:51.450Z,75.18
2023-08-14T03:15:18.896Z,74.51
2023-08-14T03:17:47.053Z,74.13
2023-08-14T03:20:14.752Z,74.40
2023-08-14T03:22:42.464Z,74.38
2023-08-14T03:25:10.091Z,74.50
2023-08-14T03:27:38.196Z,74.05
2023-08-14T03:30:05.997Z,74.29
2023-08-14T03:32:34.611Z,74.67
2023-08-14T03:35:02.024Z,74.25
2023-08-14T03:37:30.083Z,75.14
2023-08-14T03:39:57.383Z,76.09
2023-08-14T03:42:24.668Z,76.93
2023-08-14T03:44:52.034Z,76.54
2023-08-14T03:47:19.441Z,75.75
2023-08-14T03:49:46.795Z,75.16
2023-08-14T03:52:14.328Z,75.04
2023-08-14T03:54:41.706Z,75.12
2023-08-14T03:57:09.630Z,74.64
2023-08-14T03:59:36.964Z,74.78
2023-08-14T04:02:04.367Z,74.99
2023-08-14T04:04:31.689Z,74.35
2023-08-14T04:06:59.655Z,74.29
2023-08-14T04:09:28.453Z,74.37
2023-08-14T04:11:55.755Z,74.29
2023-08-14T04:14:24.547Z,75.46
2023-08-14T04:16:51.920Z,75.55
2023-08-14T04:19:20.408Z,74.90
2023-08-14T04:21:47.874Z,75.14
2023-08-14T04:24:15.169Z,75.33
2023-08-14T04:26:42.554Z,75.21
2023-08-14T04:29:11.091Z,75.15
2023-08-14T04:31:39.839Z,75.03
2023-08-14T04:34:08.125Z,74.82
2023-08-14T04:36:36.934Z,74.52
2023-08-14T04:39:05.511Z,74.65
2023-08-14T04:41:32.834Z,74.84
2023-08-14T04:44:00.181Z,75.99
2023-08-14T04:46:38.248Z,76.47
2023-08-14T04:49:09.153Z,76.60
2023-08-14T04:51:36.543Z,75.66
2023-08-14T04:54:04.092Z,75.20
2023-08-14T04:56:32.420Z,75.11
2023-08-14T04:58:59.777Z,74.78
2023-08-14T05:01:27.113Z,74.67
2023-08-14T05:03:54.390Z,74.65
2023-08-14T05:06:21.697Z,74.43
2023-08-14T05:08:49.035Z,74.54
2023-08-14T05:11:16.368Z,74.26
2023-08-14T05:13:45.754Z,75.63
2023-08-14T05:16:13.427Z,75.95
2023-08-14T05:18:40.781Z,76.52
2023-08-14T05:21:08.288Z,76.26
2023-08-14T05:23:35.649Z,76.00
2023-08-14T05:26:02.983Z,76.58
2023-08-14T05:28:30.414Z,76.69
2023-08-14T05:30:57.733Z,76.87
2023-08-14T05:33:25.030Z,76.66
2023-08-14T05:35:52.438Z,76.80
2023-08-14T05:38:19.788Z,77.32
2023-08-14T05:40:47.087Z,77.46
2023-08-14T05:43:14.406Z,76.37
2023-08-14T05:45:46.803Z,76.24
2023-08-14T05:48:15.404Z,76.48
2023-08-14T05:50:43.190Z,76.73
2023-08-14T05:53:10.521Z,77.38
2023-08-14T05:55:42.749Z,76.58
2023-08-14T05:58:10.156Z,75.88
2023-08-14T06:00:40.000Z,75.48
2023-08-14T06:03:10.047Z,75.79
2023-08-14T06:05:37.549Z,76.21
2023-08-14T06:08:06.208Z,76.26
2023-08-14T06:10:33.680Z,76.64
2023-08-14T06:13:01.097Z,76.68
2023-08-14T06:15:28.978Z,76.06
2023-08-14T06:17:56.391Z,76.30
2023-08-14T06:20:23.807Z,76.09
2023-08-14T06:22:51.147Z,76.07
2023-08-14T06:25:19.522Z,76.17
2023-08-14T06:27:46.897Z,76.24
2023-08-14T06:30:16.086Z,75.75
2023-08-14T06:32:43.469Z,75.90
2023-08-14T06:35:10.914Z,75.65
2023-08-14T06:37:38.248Z,75.52
2023-08-14T06:40:06.222Z,75.24
2023-08-14T06:42:33.601Z,75.05
2023-08-14T06:45:00.941Z,75.07
2023-08-14T06:47:28.360Z,74.81
2023-08-14T06:49:55.662Z,74.74
2023-08-14T06:52:23.002Z,74.98
2023-08-14T06:54:50.356Z,74.56
2023-08-14T06:57:17.631Z,74.86
2023-08-14T06:59:46.718Z,74.22
2023-08-14T07:02:14.261Z,74.25
2023-08-14T07:04:41.761Z,73.77
2023-08-14T07:07:09.077Z,73.37
2023-08-14T07:09:36.459Z,72.66
2023-08-14T07:12:04.072Z,72.40
2023-08-14T07:14:32.677Z,71.88
2023-08-14T07:17:00.022Z,71.39
2023-08-14T07:19:27.351Z,71.50
2023-08-14T07:21:54.669Z,71.45
2023-08-14T07:24:22.062Z,71.91
2023-08-14T07:26:49.341Z,72.01
2023-08-14T07:29:19.802Z,71.38
2023-08-14T07:31:47.361Z,70.52
2023-08-14T07:34:14.780Z,70.74
2023-08-14T07:36:42.230Z,71.13
2023-08-14T07:39:09.677Z,70.86
2023-08-14T07:41:36.992Z,69.67
2023-08-14T07:44:04.591Z,69.93
2023-08-14T07:46:31.923Z,69.51
2023-08-14T07:48:59.310Z,69.19
2023-08-14T07:51:26.951Z,69.12
2023-08-14T07:53:54.507Z,69.04
2023-08-14T07:56:22.029Z,67.80
2023-08-14T07:58:49.456Z,67.52
2023-08-14T08:01:17.403Z,67.23
2023-08-14T08:03:45.192Z,67.63
2023-08-14T08:06:12.659Z,67.42
2023-08-14T08:08:40.965Z,67.00
2023-08-14T08:11:10.017Z,67.85
2023-08-14T08:13:37.365Z,66.07
2023-08-14T08:16:04.767Z,65.39
2023-08-14T08:18:32.085Z,65.43
2023-08-14T08:20:59.432Z,66.24
2023-08-14T08:23:26.735Z,65.32
2023-08-14T08:25:54.212Z,65.35
2023-08-14T08:28:21.491Z,65.42
2023-08-14T08:30:48.850Z,65.05
2023-08-14T08:33:16.156Z,64.63
2023-08-14T08:35:43.671Z,63.77
2023-08-14T08:38:10.927Z,63.60
2023-08-14T08:40:42.465Z,63.37
2023-08-14T08:43:11.123Z,63.67
2023-08-14T08:45:42.407Z,63.47
2023-08-14T08:48:09.887Z,64.49
2023-08-14T08:50:38.235Z,64.74
2023-08-14T08:53:06.215Z,64.72
2023-08-14T08:55:33.780Z,65.25
2023-08-14T08:58:02.783Z,66.13
2023-08-14T09:00:30.328Z,65.24
2023-08-14T09:02:57.769Z,64.14
2023-08-14T09:05:25.591Z,63.35
2023-08-14T09:07:53.128Z,64.62
2023-08-14T09:10:20.475Z,64.51
2023-08-14T09:12:47.792Z,63.21
2023-08-14T09:15:16.320Z,61.99
2023-08-14T09:17:43.788Z,61.71
2023-08-14T09:20:24.335Z,62.88
2023-08-14T09:22:59.206Z,63.44
2023-08-14T09:25:27.438Z,62.56
2023-08-14T09:27:56.743Z,61.75
2023-08-14T09:30:27.752Z,61.77
2023-08-14T09:32:56.895Z,61.86
2023-08-14T09:35:24.449Z,62.62
2023-08-14T09:37:51.937Z,62.33
2023-08-14T09:40:19.292Z,62.80
2023-08-14T09:42:49.833Z,63.33
2023-08-14T09:45:18.840Z,63.66
2023-08-14T09:47:51.143Z,64.04
2023-08-14T09:50:21.365Z,64.24
2023-08-14T09:52:50.133Z,64.69
2023-08-14T09:55:18.312Z,64.53
2023-08-14T09:57:46.910Z,64.98
2023-08-14T10:00:14.818Z,65.81
2023-08-14T10:02:43.828Z,66.03
2023-08-14T10:05:11.795Z,66.97
2023-08-14T10:07:40.988Z,67.55
2023-08-14T10:10:09.672Z,67.21
2023-08-14T10:12:57.378Z,67.40
2023-08-14T10:15:33.509Z,66.87
2023-08-14T10:18:11.053Z,66.70
2023-08-14T10:20:40.567Z,67.46
2023-08-14T10:23:12.057Z,67.08
2023-08-14T10:25:40.252Z,66.08
2023-08-14T10:28:10.736Z,64.79
2023-08-14T10:30:39.669Z,65.78
2023-08-14T10:33:07.878Z,66.23
2023-08-14T10:35:52.586Z,65.22
2023-08-14T10:38:25.313Z,66.03
2023-08-14T10:41:05.311Z,65.83
2023-08-14T10:43:32.713Z,64.65
2023-08-14T10:46:00.064Z,64.35
2023-08-14T10:48:27.387Z,63.55
2023-08-14T10:51:01.064Z,63.68
2023-08-14T10:53:31.096Z,63.21
2023-08-14T10:55:59.780Z,62.53
2023-08-14T10:58:32.954Z,62.04
2023-08-14T11:01:10.290Z,60.69
2023-08-14T11:03:56.388Z,61.96
2023-08-14T11:06:28.441Z,62.35
2023-08-14T11:09:06.388Z,61.52
2023-08-14T11:11:33.719Z,62.09
2023-08-14T11:14:01.167Z,61.18
2023-08-14T11:16:29.224Z,60.33
2023-08-14T11:18:59.372Z,60.15
2023-08-14T11:21:31.995Z,61.14
2023-08-14T11:24:00.177Z,60.89
2023-08-14T11:26:31.714Z,61.25
2023-08-14T11:28:59.079Z,61.02
2023-08-14T11:31:33.934Z,60.95
2023-08-14T11:34:02.467Z,60.20
2023-08-14T11:36:34.467Z,59.31
2023-08-14T11:39:02.563Z,59.80
2023-08-14T11:41:31.985Z,59.71
2023-08-14T11:43:59.861Z,60.01
2023-08-14T11:46:27.450Z,59.59
2023-08-14T11:48:54.797Z,59.22
2023-08-14T11:51:22.163Z,59.82
2023-08-14T11:53:49.713Z,59.75
2023-08-14T11:56:17.107Z,59.63
2023-08-14T11:58:49.870Z,58.23
2023-08-14T12:01:25.354Z,56.62
2023-08-14T12:03:53.910Z,56.42
2023-08-14T12:06:21.692Z,56.22
2023-08-14T12:08:49.112Z,56.89
2023-08-14T12:11:18.074Z,57.71
2023-08-14T12:13:54.009Z,56.41
2023-08-14T12:16:23.055Z,56.92
2023-08-14T12:18:51.200Z,56.33
2023-08-14T12:21:18.631Z,55.96
2023-08-14T12:23:48.223Z,56.59
2023-08-14T12:26:16.697Z,57.23
2023-08-14T12:28:44.477Z,57.51
2023-08-14T12:31:15.681Z,56.58
2023-08-14T12:33:45.203Z,56.21
2023-08-14T12:36:14.386Z,56.31
2023-08-14T12:38:41.727Z,55.05
2023-08-14T12:41:09.119Z,54.86
2023-08-14T12:43:40.171Z,55.22
2023-08-14T12:46:11.413Z,54.28
2023-08-14T12:48:38.905Z,54.49
2023-08-14T12:53:53.574Z,55.16
2023-08-14T12:59:09.042Z,56.01
2023-08-14T13:01:36.447Z,55.99
2023-08-14T13:04:07.735Z,56.24
2023-08-14T13:06:35.426Z,56.24
2023-08-14T13:09:03.053Z,55.83
2023-08-14T13:11:30.585Z,55.60
2023-08-14T13:13:58.116Z,55.25
2023-08-14T13:16:25.832Z,55.76
2023-08-14T13:18:53.575Z,56.26
2023-08-14T13:21:20.883Z,55.84
2023-08-14T13:23:50.321Z,55.23
2023-08-14T13:26:26.883Z,55.59
2023-08-14T13:28:55.580Z,55.23
2023-08-14T13:31:23.082Z,55.11
2023-08-14T13:33:51.112Z,55.61
2023-08-14T13:36:18.567Z,56.06
2023-08-14T13:38:45.962Z,55.22
2023-08-14T13:41:13.465Z,54.93
2023-08-14T13:43:41.061Z,54.52
2023-08-14T13:46:08.574Z,54.84
2023-08-14T13:48:35.910Z,54.30
2023-08-14T13:51:03.410Z,54.18
2023-08-14T13:53:30.875Z,54.49
2023-08-14T13:55:58.324Z,53.94
2023-08-14T13:58:25.696Z,53.68
2023-08-14T14:00:53.076Z,53.92
2023-08-14T14:03:20.457Z,54.25
2023-08-14T14:05:47.907Z,54.41
2023-08-14T14:08:15.255Z,54.50
2023-08-14T14:10:42.603Z,53.99
2023-08-14T14:13:10.112Z,53.85
2023-08-14T14:15:39.338Z,53.95
2023-08-14T14:18:07.999Z,53.46
2023-08-14T14:20:36.189Z,54.20
2023-08-14T14:23:03.628Z,54.23
2023-08-14T14:25:31.158Z,53.56
2023-08-14T14:27:59.743Z,54.27
2023-08-14T14:30:27.730Z,54.79
2023-08-14T14:32:55.133Z,53.55
2023-08-14T14:35:22.659Z,53.50
2023-08-14T14:37:49.998Z,53.83
2023-08-14T14:40:17.385Z,53.32
2023-08-14T14:42:44.734Z,54.03
2023-08-14T14:45:20.618Z,54.87
2023-08-14T14:47:56.111Z,55.56
2023-08-14T14:50:29.676Z,54.48
2023-08-14T14:52:58.448Z,54.25
2023-08-14T14:55:27.521Z,54.28
2023-08-14T14:57:54.910Z,54.17
2023-08-14T15:00:22.664Z,53.65
2023-08-14T15:02:51.312Z,53.25
2023-08-14T15:07:49.126Z,53.75
2023-08-14T15:10:16.866Z,53.76
2023-08-14T15:12:44.416Z,52.69
2023-08-14T15:15:11.998Z,52.31
2023-08-14T15:17:44.013Z,52.52
2023-08-14T15:20:14.061Z,52.29
2023-08-14T15:22:44.307Z,51.99
2023-08-14T15:25:13.264Z,52.05
2023-08-14T15:27:40.640Z,52.07
2023-08-14T15:30:09.874Z,52.79
2023-08-14T15:32:37.410Z,53.17
2023-08-14T15:35:05.326Z,52.26
2023-08-14T15:37:32.754Z,52.83
2023-08-14T15:40:00.235Z,51.47
2023-08-14T15:42:27.625Z,50.02
2023-08-14T15:44:55.853Z,50.39
2023-08-14T15:47:23.846Z,51.03
2023-08-14T15:49:51.243Z,50.93
2023-08-14T15:52:19.066Z,50.83
2023-08-14T15:54:53.486Z,50.42
2023-08-14T15:57:22.658Z,50.61
2023-08-14T15:59:51.122Z,50.06
2023-08-14T16:02:22.784Z,49.42
2023-08-14T16:04:51.536Z,49.64
2023-08-14T16:07:19.734Z,49.19
2023-08-14T16:09:51.227Z,48.81
2023-08-14T16:12:19.359Z,49.80
2023-08-14T16:14:47.499Z,50.64
2023-08-14T16:17:15.178Z,50.51
2023-08-14T16:19:42.515Z,51.37
2023-08-14T16:22:09.968Z,50.80
2023-08-14T16:24:39.790Z,49.72
2023-08-14T16:27:08.254Z,50.17
2023-08-14T16:29:35.567Z,50.72
2023-08-14T16:32:02.938Z,51.82
2023-08-14T16:34:30.400Z,49.97
2023-08-14T16:36:57.753Z,50.53
2023-08-14T16:39:25.113Z,50.03
2023-08-14T16:41:52.468Z,50.62
2023-08-14T16:44:21.531Z,50.34
2023-08-14T16:46:48.899Z,50.03
2023-08-14T16:49:16.297Z,51.95
2023-08-14T16:51:43.598Z,51.56
2023-08-14T16:54:10.977Z,52.16
2023-08-14T16:56:39.864Z,51.84
2023-08-14T16:59:07.367Z,52.60
2023-08-14T17:01:35.616Z,52.57
2023-08-14T17:04:04.395Z,51.68
2023-08-14T17:06:32.009Z,52.22
2023-08-14T17:08:59.416Z,52.90
2023-08-14T17:11:26.831Z,52.63
2023-08-14T17:13:54.246Z,53.08
2023-08-14T17:16:21.558Z,52.89
2023-08-14T17:18:48.975Z,52.31
2023-08-14T17:21:16.376Z,51.99
2023-08-14T17:23:43.794Z,52.16
2023-08-14T17:26:11.058Z,51.87
2023-08-14T17:28:38.476Z,52.27
2023-08-14T17:31:05.770Z,52.66
2023-08-14T17:33:33.260Z,51.69
2023-08-14T17:36:00.533Z,51.58
2023-08-14T17:38:27.926Z,51.93
2023-08-14T17:40:55.617Z,53.38
2023-08-14T17:43:23.126Z,52.87
2023-08-14T17:45:51.023Z,51.55
2023-08-14T17:48:18.498Z,50.89
2023-08-14T17:50:53.218Z,50.66
2023-08-14T17:53:21.388Z,51.06
2023-08-14T17:55:48.879Z,50.80
2023-08-14T17:58:16.353Z,51.15
2023-08-14T18:00:49.008Z,51.56
2023-08-14T18:03:16.651Z,52.50
2023-08-14T18:05:54.354Z,52.48
2023-08-14T18:08:22.166Z,52.83
2023-08-14T18:10:50.338Z,53.70
2023-08-14T18:13:17.730Z,54.30
2023-08-14T18:15:45.703Z,54.74
2023-08-14T18:18:13.125Z,55.76
2023-08-14T18:20:40.466Z,56.39
2023-08-14T18:23:08.305Z,57.17
2023-08-14T18:25:35.699Z,57.81
2023-08-14T18:28:03.158Z,58.67
2023-08-14T18:30:30.808Z,58.88
2023-08-14T18:32:58.245Z,60.26
2023-08-14T18:35:25.836Z,59.99
2023-08-14T18:37:54.331Z,60.21
2023-08-14T18:40:21.715Z,59.54
2023-08-14T18:42:49.055Z,60.00
2023-08-14T18:45:17.115Z,60.16
2023-08-14T18:47:45.006Z,61.05
2023-08-14T18:50:13.806Z,61.19
2023-08-14T18:52:41.439Z,62.50
2023-08-14T18:55:09.720Z,61.94
2023-08-14T18:57:37.378Z,61.66
2023-08-14T19:00:10.966Z,61.60
2023-08-14T19:02:38.400Z,62.59
2023-08-14T19:05:06.579Z,63.38
2023-08-14T19:07:33.853Z,63.17
2023-08-14T19:10:01.193Z,62.81
2023-08-14T19:12:30.300Z,63.01
2023-08-14T19:14:57.646Z,63.67
2023-08-14T19:17:24.996Z,63.65
2023-08-14T19:19:52.344Z,63.94
2023-08-14T19:22:19.924Z,63.97
2023-08-14T19:24:47.345Z,64.61
2023-08-14T19:27:14.816Z,64.77
2023-08-14T19:29:43.119Z,64.82
2023-08-14T19:32:10.550Z,65.22
2023-08-14T19:34:37.937Z,65.29
2023-08-14T19:37:05.550Z,65.67
2023-08-14T19:39:33.033Z,66.50
2023-08-14T19:42:00.398Z,65.56
2023-08-14T19:44:27.728Z,65.88
2023-08-14T19:46:55.121Z,66.32
2023-08-14T19:49:22.504Z,66.21
2023-08-14T19:51:49.947Z,65.88
2023-08-14T19:54:17.291Z,65.90
2023-08-14T19:56:44.624Z,66.38
2023-08-14T19:59:11.952Z,66.44
2023-08-14T20:01:39.390Z,65.80
2023-08-14T20:04:07.138Z,65.28
2023-08-14T20:06:34.684Z,65.79
2023-08-14T20:09:02.607Z,66.41
2023-08-14T20:11:30.267Z,67.04
2023-08-14T20:13:57.605Z,67.02
2023-08-14T20:16:25.020Z,67.68
2023-08-14T20:18:53.906Z,67.62
2023-08-14T20:21:21.393Z,67.47
2023-08-14T20:23:48.806Z,67.83
2023-08-14T20:26:16.148Z,68.62
2023-08-14T20:28:44.570Z,68.54
2023-08-14T20:31:19.175Z,67.68
2023-08-14T20:33:46.978Z,67.76
2023-08-14T20:36:28.103Z,68.90
2023-08-14T20:38:55.465Z,68.56
2023-08-14T20:41:22.875Z,68.71
2023-08-14T20:43:50.206Z,68.92
2023-08-14T20:46:17.685Z,68.70
2023-08-14T20:48:45.092Z,69.59
2023-08-14T20:51:13.135Z,69.48
2023-08-14T20:53:41.212Z,69.75
2023-08-14T20:56:08.681Z,69.93
2023-08-14T20:58:36.122Z,70.06
2023-08-14T21:01:03.532Z,70.48
2023-08-14T21:03:31.065Z,70.22
2023-08-14T21:05:58.653Z,70.67
2023-08-14T21:08:26.076Z,70.68
2023-08-14T21:10:53.630Z,70.21
2023-08-14T21:13:21.387Z,70.17
2023-08-14T21:15:48.781Z,70.25
2023-08-14T21:18:16.283Z,70.61
2023-08-14T21:20:44.566Z,70.88
2023-08-14T21:23:13.366Z,70.73
2023-08-14T21:25:47.723Z,71.70
2023-08-14T21:28:16.724Z,71.65
2023-08-14T21:30:44.379Z,71.35
2023-08-14T21:33:11.759Z,71.23
2023-08-14T21:35:39.146Z,71.20
2023-08-14T21:38:06.528Z,71.88
2023-08-14T21:40:39.031Z,71.73
2023-08-14T21:43:06.334Z,71.94
2023-08-14T21:45:37.481Z,71.98
2023-08-14T21:48:05.085Z,72.10
2023-08-14T21:50:36.479Z,72.33
2023-08-14T21:53:04.728Z,72.34
2023-08-14T21:55:32.135Z,73.31
2023-08-14T21:57:59.438Z,73.47
2023-08-14T22:00:26.769Z,72.87
2023-08-14T22:02:54.130Z,72.59
2023-08-14T22:05:21.535Z,72.51
2023-08-14T22:07:48.854Z,72.63
2023-08-14T22:10:16.305Z,72.66
2023-08-14T22:12:45.981Z,72.80
2023-08-14T22:15:13.629Z,72.82
2023-08-14T22:17:40.994Z,73.13
2023-08-14T22:20:11.343Z,73.26
2023-08-14T22:22:39.238Z,74.14
2023-08-14T22:25:08.420Z,74.15
2023-08-14T22:27:40.450Z,74.16
2023-08-14T22:30:08.407Z,73.47
2023-08-14T22:32:35.740Z,73.33
2023-08-14T22:35:03.191Z,73.84
2023-08-14T22:37:30.605Z,73.45
2023-08-14T22:39:58.047Z,73.82
2023-08-14T22:42:26.195Z,73.59
2023-08-14T22:44:53.557Z,73.10
2023-08-14T22:47:21.048Z,73.22
2023-08-14T22:49:48.535Z,73.01
2023-08-14T22:52:15.905Z,72.98
2023-08-14T22:54:43.409Z,72.86
2023-08-14T22:57:10.869Z,73.43
2023-08-14T22:59:38.264Z,73.35
2023-08-14T23:02:05.681Z,74.11
2023-08-14T23:04:33.041Z,73.87
2023-08-14T23:07:00.389Z,74.57
2023-08-14T23:09:27.793Z,74.62
2023-08-14T23:11:55.155Z,74.25
2023-08-14T23:16:49.749Z,74.29
2023-08-14T23:19:17.103Z,74.64
2023-08-14T23:21:44.504Z,74.64
2023-08-14T23:24:11.856Z,74.64
2023-08-14T23:26:39.234Z,74.61
2023-08-14T23:29:06.610Z,74.01
2023-08-14T23:31:34.012Z,74.41
2023-08-14T23:34:01.366Z,73.82
2023-08-14T23:36:29.188Z,74.08
2023-08-14T23:38:56.476Z,74.57
2023-08-14T23:41:23.761Z,73.72
2023-08-14T23:43:51.055Z,73.62
2023-08-14T23:46:18.432Z,74.17
2023-08-14T23:48:45.734Z,74.03
2023-08-14T23:51:13.152Z,74.27
2023-08-14T23:53:40.507Z,73.81
2023-08-14T23:56:07.861Z,74.13
2023-08-14T23:58:35.199Z,74.03
